Time;durP1;ratioP1;P1;durP2;ratioP2;P2;SDS_P1;SDS_P2;PMS_P1;PMS_P2;Temp;Humidity;BMP_temperature;BMP_pressure;BME280_temperature;BME280_humidity;BME280_pressure;Samples;Min_cycle;Max_cycle;Signal;HPM_P1;HPM_P2
2023/12/04 00:00:37;;;;;;;;;;;;;;;16.07;47.80;101413.69;4992954;28;1029;-53
2023/12/04 00:03:02;;;;;;;;;;;;;;;15.94;46.87;101416.78;4994634;28;1159;-53
2023/12/04 00:05:28;;;;;;;;;;;;;;;15.89;46.29;101425.78;4992641;28;1038;-51
2023/12/04 00:07:53;;;;;;;;;;;;;;;16.99;47.88;101417.75;4996175;28;1154;-51
2023/12/04 00:10:19;;;;;;;;;;;;;;;16.20;48.07;101414.38;4987992;28;1163;-49
2023/12/04 00:12:44;;;;;;;;;;;;;;;16.07;46.90;101427.41;4993685;28;1140;-47
2023/12/04 00:15:10;;;;;;;;;;;;;;;15.87;46.44;101418.91;4992789;28;1120;-49
2023/12/04 00:17:39;;;;;;;;;;;;;;;16.37;47.51;101430.78;4999735;28;1910;-54
2023/12/04 00:20:08;;;;;;;;;;;;;;;16.57;48.22;101439.25;4997218;28;1172;-49
2023/12/04 00:22:34;;;;;;;;;;;;;;;16.09;47.76;101440.88;4993430;28;1033;-51
2023/12/04 00:24:59;;;;;;;;;;;;;;;15.87;46.80;101441.66;4993230;28;1069;-53
2023/12/04 00:27:26;;;;;;;;;;;;;;;15.93;46.50;101447.22;5000012;28;1044;-50
2023/12/04 00:29:52;;;;;;;;;;;;;;;16.90;47.99;101455.81;4986660;28;1175;-52
2023/12/04 00:32:18;;;;;;;;;;;;;;;16.26;47.80;101476.47;4992187;28;919;-52
2023/12/04 00:34:43;;;;;;;;;;;;;;;16.65;48.27;101492.03;4993953;28;1147;-52
2023/12/04 00:37:09;;;;;;;;;;;;;;;16.56;48.73;101487.03;4993509;28;1967;-51
2023/12/04 00:39:34;;;;;;;;;;;;;;;16.26;47.61;101506.66;4992873;28;1230;-53
2023/12/04 00:42:00;;;;;;;;;;;;;;;16.05;46.89;101505.56;4998870;28;1051;-50
2023/12/04 00:44:25;;;;;;;;;;;;;;;15.97;45.90;101511.47;4998047;28;1257;-48
2023/12/04 00:46:51;;;;;;;;;;;;;;;15.83;45.63;101491.78;4999395;28;1023;-50
2023/12/04 00:49:16;;;;;;;;;;;;;;;15.96;46.26;101474.13;4987224;28;1194;-52
2023/12/04 00:51:42;;;;;;;;;;;;;;;16.64;48.13;101458.28;4984726;28;1407;-49
2023/12/04 00:54:07;;;;;;;;;;;;;;;16.12;47.63;101466.94;4999579;28;1150;-50
2023/12/04 00:56:33;;;;;;;;;;;;;;;15.91;46.75;101463.94;4993114;28;1983;-53
2023/12/04 00:58:58;;;;;;;;;;;;;;;16.17;47.17;101467.88;4999589;28;1084;-51
2023/12/04 01:01:24;;;;;;;;;;;;;;;16.35;48.06;101466.69;4994191;28;1087;-51
2023/12/04 01:03:49;;;;;;;;;;;;;;;16.04;47.33;101466.28;4990684;28;1107;-53
2023/12/04 01:06:23;;;;;;;;;;;;;;;16.57;48.05;101463.13;4994147;28;1051;-49
2023/12/04 01:08:49;;;;;;;;;;;;;;;16.24;47.58;101476.75;4979830;28;867;-51
2023/12/04 01:11:15;;;;;;;;;;;;;;;16.03;47.04;101470.16;4993285;28;1013;-49
2023/12/04 01:13:40;;;;;;;;;;;;;;;15.83;46.38;101470.66;4997650;28;1118;-49
2023/12/04 01:16:06;;;;;;;;;;;;;;;15.77;45.61;101470.78;4985941;28;1914;-51
2023/12/04 01:18:32;;;;;;;;;;;;;;;15.97;46.18;101456.59;4986862;28;1118;-51
2023/12/04 01:20:57;;;;;;;;;;;;;;;16.08;47.81;101467.44;4986843;28;1065;-52
2023/12/04 01:23:23;;;;;;;;;;;;;;;15.87;46.77;101474.56;4991857;28;1200;-51
2023/12/04 01:25:48;;;;;;;;;;;;;;;15.89;47.09;101502.59;4998384;28;1099;-52
2023/12/04 01:28:14;;;;;;;;;;;;;;;16.40;47.84;101502.47;4986440;28;1219;-52
2023/12/04 01:30:40;;;;;;;;;;;;;;;16.04;47.06;101495.66;4992415;28;1057;-51
2023/12/04 01:33:05;;;;;;;;;;;;;;;16.37;47.51;101500.22;4980541;28;889;-49
2023/12/04 01:35:30;;;;;;;;;;;;;;;16.64;48.21;101509.63;4991935;28;1084;-48
2023/12/04 01:37:56;;;;;;;;;;;;;;;16.05;47.89;101511.84;4991456;28;1898;-54
2023/12/04 01:40:21;;;;;;;;;;;;;;;16.01;46.64;101507.97;4979482;28;1116;-51
2023/12/04 01:42:47;;;;;;;;;;;;;;;16.75;47.77;101500.41;4991102;28;1125;-51
2023/12/04 01:45:12;;;;;;;;;;;;;;;16.18;47.71;101502.44;4992899;28;1160;-52
2023/12/04 01:47:38;;;;;;;;;;;;;;;15.93;46.82;101507.56;4998218;28;1083;-51
2023/12/04 01:50:04;;;;;;;;;;;;;;;17.10;47.74;101505.50;4979411;28;1187;-48
2023/12/04 01:52:30;;;;;;;;;;;;;;;16.33;48.18;101529.25;4978952;28;992;-50
2023/12/04 01:54:55;;;;;;;;;;;;;;;16.06;47.16;101535.47;4991740;28;1128;-51
2023/12/04 01:57:21;;;;;;;;;;;;;;;15.88;46.36;101538.50;5007290;28;1963;-50
2023/12/04 01:59:46;;;;;;;;;;;;;;;15.86;45.72;101557.91;4997732;28;1015;-51
2023/12/04 02:02:12;;;;;;;;;;;;;;;16.57;47.11;101564.72;4986128;28;1119;-52
2023/12/04 02:04:37;;;;;;;;;;;;;;;16.06;47.18;101568.41;5006490;28;1179;-49
2023/12/04 02:07:03;;;;;;;;;;;;;;;15.84;46.35;101564.75;4991271;28;1215;-52
2023/12/04 02:09:29;;;;;;;;;;;;;;;16.83;47.38;101579.63;4993113;28;1191;-53
2023/12/04 02:11:54;;;;;;;;;;;;;;;16.22;47.76;101574.13;4985991;28;1384;-50
2023/12/04 02:14:20;;;;;;;;;;;;;;;15.99;47.06;101567.75;4982817;28;1139;-51
2023/12/04 02:16:45;;;;;;;;;;;;;;;15.79;46.06;101561.88;4997982;28;1898;-51
2023/12/04 02:19:13;;;;;;;;;;;;;;;16.48;47.19;101560.75;4992676;28;1103;-51
2023/12/04 02:21:39;;;;;;;;;;;;;;;16.38;48.09;101559.53;4991811;28;937;-51
2023/12/04 02:24:04;;;;;;;;;;;;;;;16.05;47.25;101558.50;4979000;28;1148;-52
2023/12/04 02:26:32;;;;;;;;;;;;;;;15.90;46.26;101574.72;4978348;28;1143;-49
2023/12/04 02:28:59;;;;;;;;;;;;;;;16.90;47.35;101583.03;4991110;28;1152;-51
2023/12/04 02:31:24;;;;;;;;;;;;;;;16.21;47.94;101602.63;4990821;28;1196;-53
2023/12/04 02:33:52;;;;;;;;;;;;;;;16.03;46.91;101617.44;4986845;28;1084;-51
2023/12/04 02:36:17;;;;;;;;;;;;;;;15.80;46.14;101623.91;4984765;28;1887;-53
2023/12/04 02:38:43;;;;;;;;;;;;;;;15.75;46.09;101643.81;4990966;28;1247;-51
2023/12/04 02:41:08;;;;;;;;;;;;;;;16.69;47.68;101645.09;4990090;28;1155;-51
2023/12/04 02:43:34;;;;;;;;;;;;;;;16.05;47.93;101651.78;4995933;28;1026;-51
2023/12/04 02:45:59;;;;;;;;;;;;;;;17.40;47.90;101660.00;4992329;28;1532;-48
2023/12/04 02:48:25;;;;;;;;;;;;;;;16.81;48.67;101674.34;4984322;28;1183;-49
2023/12/04 02:50:50;;;;;;;;;;;;;;;16.37;48.25;101666.84;4985740;28;1134;-50
2023/12/04 02:53:15;;;;;;;;;;;;;;;16.14;47.04;101663.16;4990927;28;1144;-49
2023/12/04 02:55:41;;;;;;;;;;;;;;;16.03;46.21;101661.31;4977947;28;1052;-52
2023/12/04 02:58:06;;;;;;;;;;;;;;;15.86;45.86;101658.56;4993964;28;1906;-51
2023/12/04 03:00:32;;;;;;;;;;;;;;;15.82;45.08;101661.00;4997128;28;1116;-51
2023/12/04 03:02:57;;;;;;;;;;;;;;;16.43;46.87;101666.66;4991946;28;1083;-51
2023/12/04 03:05:23;;;;;;;;;;;;;;;16.73;48.54;101668.22;4989567;28;1128;-49
2023/12/04 03:07:48;;;;;;;;;;;;;;;16.24;47.76;101678.97;4997040;28;1061;-52
2023/12/04 03:10:14;;;;;;;;;;;;;;;16.05;46.94;101676.47;4996319;28;874;-49
2023/12/04 03:12:39;;;;;;;;;;;;;;;15.85;46.44;101674.22;4996703;28;1111;-48
2023/12/04 03:15:05;;;;;;;;;;;;;;;16.64;48.15;101674.38;4985481;28;1133;-52
2023/12/04 03:17:31;;;;;;;;;;;;;;;16.16;47.66;101672.00;4990612;28;1914;-50
2023/12/04 03:19:56;;;;;;;;;;;;;;;16.00;46.54;101659.09;4988712;28;1111;-48
2023/12/04 03:22:22;;;;;;;;;;;;;;;16.02;46.76;101660.50;4991607;28;1160;-48
2023/12/04 03:24:47;;;;;;;;;;;;;;;16.25;47.63;101655.94;4988525;28;1068;-52
2023/12/04 03:27:13;;;;;;;;;;;;;;;15.95;47.02;101661.72;4995973;28;1087;-48
2023/12/04 03:29:38;;;;;;;;;;;;;;;16.76;47.70;101653.97;4992108;28;1139;-51
2023/12/04 03:32:04;;;;;;;;;;;;;;;16.17;47.65;101661.84;5000797;28;1155;-53
2023/12/04 03:34:29;;;;;;;;;;;;;;;15.98;47.34;101659.34;4994232;28;946;-52
2023/12/04 03:36:55;;;;;;;;;;;;;;;16.56;47.93;101670.13;5000394;28;1965;-51
2023/12/04 03:39:20;;;;;;;;;;;;;;;16.12;47.36;101665.34;4990141;28;1227;-53
2023/12/04 03:41:46;;;;;;;;;;;;;;;15.97;46.59;101673.31;4998270;28;1258;-48
2023/12/04 03:44:12;;;;;;;;;;;;;;;16.62;47.75;101687.50;4989887;28;1171;-52
2023/12/04 03:46:37;;;;;;;;;;;;;;;16.56;47.98;101686.59;4981123;28;911;-49
2023/12/04 03:49:03;;;;;;;;;;;;;;;16.09;47.64;101687.78;4991507;28;1065;-52
2023/12/04 03:51:29;;;;;;;;;;;;;;;15.99;46.71;101695.81;4995885;28;1082;-51
2023/12/04 03:53:54;;;;;;;;;;;;;;;16.80;48.09;101691.91;4991953;28;1132;-49
2023/12/04 03:56:20;;;;;;;;;;;;;;;16.20;47.69;101702.50;5000109;28;1977;-51
2023/12/04 03:58:45;;;;;;;;;;;;;;;16.09;46.70;101698.75;4982156;28;979;-52
2023/12/04 04:01:11;;;;;;;;;;;;;;;15.89;45.84;101716.53;4997842;28;1080;-51
2023/12/04 04:03:36;;;;;;;;;;;;;;;16.46;47.19;101713.91;5000315;28;1039;-53
2023/12/04 04:06:02;;;;;;;;;;;;;;;16.26;47.70;101717.97;4987137;28;1144;-49
2023/12/04 04:08:27;;;;;;;;;;;;;;;16.05;46.83;101714.06;4999724;28;1124;-54
2023/12/04 04:10:53;;;;;;;;;;;;;;;16.39;47.56;101717.63;4998428;28;915;-53
2023/12/04 04:13:19;;;;;;;;;;;;;;;16.50;47.90;101717.81;5000764;28;1170;-54
2023/12/04 04:15:45;;;;;;;;;;;;;;;16.05;47.51;101714.06;4987255;28;1076;-54
2023/12/04 04:18:11;;;;;;;;;;;;;;;15.91;46.72;101719.00;4999368;28;1960;-52
2023/12/04 04:20:36;;;;;;;;;;;;;;;16.59;47.14;101724.53;4986871;28;1035;-51
2023/12/04 04:23:02;;;;;;;;;;;;;;;16.22;47.96;101725.06;4991270;28;883;-49
2023/12/04 04:25:27;;;;;;;;;;;;;;;16.02;46.80;101726.34;4999737;28;1135;-52
2023/12/04 04:27:53;;;;;;;;;;;;;;;15.85;45.89;101728.22;4999776;28;1563;-53
2023/12/04 04:30:18;;;;;;;;;;;;;;;16.37;47.13;101721.75;4986125;28;1040;-52
2023/12/04 04:32:44;;;;;;;;;;;;;;;16.28;47.68;101718.56;5000032;28;1063;-48
2023/12/04 04:35:09;;;;;;;;;;;;;;;15.96;46.90;101716.34;4993644;28;875;-54
2023/12/04 04:37:35;;;;;;;;;;;;;;;15.96;46.65;101719.09;4979832;28;1977;-54
2023/12/04 04:40:01;;;;;;;;;;;;;;;16.81;47.37;101729.28;4996089;28;1156;-53
2023/12/04 04:42:26;;;;;;;;;;;;;;;16.15;47.47;101719.72;4999447;28;1069;-55
2023/12/04 04:44:52;;;;;;;;;;;;;;;15.90;46.76;101726.38;4999445;28;1162;-53
2023/12/04 04:47:18;;;;;;;;;;;;;;;15.78;45.95;101736.56;4990147;28;873;-54
2023/12/04 04:49:43;;;;;;;;;;;;;;;15.71;45.42;101733.97;4993724;28;1089;-54
2023/12/04 04:52:09;;;;;;;;;;;;;;;16.70;47.41;101745.59;4999442;28;1124;-55
2023/12/04 04:54:34;;;;;;;;;;;;;;;16.24;47.78;101731.97;4991301;28;1131;-57
2023/12/04 04:57:00;;;;;;;;;;;;;;;15.96;46.83;101738.28;4991322;28;2721;-56
2023/12/04 04:59:27;;;;;;;;;;;;;;;15.70;46.42;101740.53;4965648;28;1883;-55
2023/12/04 05:01:52;;;;;;;;;;;;;;;16.10;46.80;101741.56;4984011;28;2249;-57
2023/12/04 05:04:18;;;;;;;;;;;;;;;16.61;47.95;101752.59;4988984;28;1949;-57
2023/12/04 05:06:43;;;;;;;;;;;;;;;16.07;47.58;101745.66;4982420;28;1875;-54
2023/12/04 05:09:09;;;;;;;;;;;;;;;15.83;46.71;101742.16;4982160;28;2102;-50
2023/12/04 05:11:34;;;;;;;;;;;;;;;15.77;45.87;101740.38;4999165;28;1083;-54
2023/12/04 05:13:59;;;;;;;;;;;;;;;16.83;47.25;101746.31;4965687;28;1114;-52
2023/12/04 05:16:25;;;;;;;;;;;;;;;16.04;48.04;101746.13;4980770;28;1902;-55
2023/12/04 05:18:50;;;;;;;;;;;;;;;16.23;47.97;101749.50;4997481;28;1341;-54
2023/12/04 05:21:16;;;;;;;;;;;;;;;16.45;48.28;101751.50;4988098;28;1142;-57
2023/12/04 05:23:41;;;;;;;;;;;;;;;16.09;47.23;101764.63;4997292;28;1422;-57
2023/12/04 05:26:07;;;;;;;;;;;;;;;15.98;46.43;101766.31;4986881;28;1052;-55
2023/12/04 05:28:33;;;;;;;;;;;;;;;16.26;46.38;101761.91;4991876;28;1113;-52
2023/12/04 05:30:58;;;;;;;;;;;;;;;16.38;46.35;101748.94;4978801;28;1101;-51
2023/12/04 05:33:24;;;;;;;;;;;;;;;16.03;47.45;101760.09;4992406;28;1172;-51
2023/12/04 05:35:51;;;;;;;;;;;;;;;15.75;48.26;101758.97;4986894;28;1252;-56
2023/12/04 05:38:17;;;;;;;;;;;;;;;15.54;48.64;101753.09;4983882;28;1983;-57
2023/12/04 05:40:42;;;;;;;;;;;;;;;16.69;46.26;101763.16;4989544;28;2663;-56
2023/12/04 05:43:08;;;;;;;;;;;;;;;16.99;45.26;101764.75;4984201;28;1130;-57
2023/12/04 05:45:33;;;;;;;;;;;;;;;16.16;47.45;101767.19;4990925;28;1071;-56
2023/12/04 05:47:59;;;;;;;;;;;;;;;15.89;48.28;101760.41;4997549;28;1007;-50
2023/12/04 05:50:24;;;;;;;;;;;;;;;15.65;48.77;101753.31;4988396;28;1179;-54
2023/12/04 05:52:50;;;;;;;;;;;;;;;16.06;48.31;101754.97;4992143;28;1079;-52
2023/12/04 05:55:16;;;;;;;;;;;;;;;17.07;45.68;101756.06;4986600;28;1111;-55
2023/12/04 05:57:41;;;;;;;;;;;;;;;16.18;47.78;101767.78;4996895;28;1914;-56
2023/12/04 06:00:13;;;;;;;;;;;;;;;15.84;48.71;101767.72;4997683;28;1187;-52
2023/12/04 06:02:41;;;;;;;;;;;;;;;15.93;48.59;101774.44;4982649;28;1122;-54
2023/12/04 06:05:07;;;;;;;;;;;;;;;17.33;45.30;101778.41;4986890;28;1040;-52
2023/12/04 06:07:33;;;;;;;;;;;;;;;16.53;47.19;101769.47;4995281;28;1202;-54
2023/12/04 06:09:59;;;;;;;;;;;;;;;16.02;48.38;101759.28;4985168;28;2742;-53
2023/12/04 06:12:24;;;;;;;;;;;;;;;15.78;49.07;101769.47;4992744;28;1033;-53
2023/12/04 06:14:50;;;;;;;;;;;;;;;15.60;49.39;101762.25;4988816;28;1036;-52
2023/12/04 06:17:16;;;;;;;;;;;;;;;16.46;47.99;101766.91;4993286;28;1983;-55
2023/12/04 06:19:41;;;;;;;;;;;;;;;17.19;45.87;101779.88;4988908;28;1091;-54
2023/12/04 06:22:07;;;;;;;;;;;;;;;16.25;48.26;101766.53;4988848;28;1203;-53
2023/12/04 06:24:33;;;;;;;;;;;;;;;15.91;49.08;101773.88;5001085;28;1035;-53
2023/12/04 06:26:58;;;;;;;;;;;;;;;15.83;49.55;101777.00;4982574;28;1175;-56
2023/12/04 06:29:24;;;;;;;;;;;;;;;17.24;46.03;101791.75;4977445;28;1012;-52
2023/12/04 06:31:50;;;;;;;;;;;;;;;16.39;48.00;101788.19;4991378;28;1185;-50
2023/12/04 06:34:16;;;;;;;;;;;;;;;15.96;49.22;101798.63;4992661;28;1139;-53
2023/12/04 06:36:41;;;;;;;;;;;;;;;15.73;49.58;101786.66;4990038;28;1983;-54
2023/12/04 06:39:08;;;;;;;;;;;;;;;15.58;49.83;101791.81;4982774;28;1929;-55
2023/12/04 06:41:34;;;;;;;;;;;;;;;15.81;49.91;101798.34;4976606;28;1231;-57
2023/12/04 06:44:00;;;;;;;;;;;;;;;17.20;46.47;101817.25;4977465;28;1070;-57
2023/12/04 06:46:25;;;;;;;;;;;;;;;16.60;47.58;101830.56;4990709;28;1119;-57
2023/12/04 06:48:51;;;;;;;;;;;;;;;16.00;49.06;101831.91;4995670;28;1079;-57
2023/12/04 06:51:16;;;;;;;;;;;;;;;15.74;49.83;101834.13;4996348;28;1075;-53
2023/12/04 06:53:42;;;;;;;;;;;;;;;16.04;49.43;101835.84;4996864;28;1051;-55
2023/12/04 06:56:08;;;;;;;;;;;;;;;17.26;46.27;101835.47;4996505;28;1059;-52
2023/12/04 06:58:34;;;;;;;;;;;;;;;16.35;48.32;101828.19;4988445;28;1977;-57
2023/12/04 07:01:00;;;;;;;;;;;;;;;15.89;49.55;101828.97;4992398;28;1159;-51
2023/12/04 07:03:26;;;;;;;;;;;;;;;15.67;49.90;101834.25;4987525;28;1040;-52
2023/12/04 07:05:52;;;;;;;;;;;;;;;15.72;50.40;101837.09;4992701;28;1135;-55
2023/12/04 07:08:18;;;;;;;;;;;;;;;17.15;46.63;101830.94;4987489;28;1084;-57
2023/12/04 07:10:43;;;;;;;;;;;;;;;16.51;48.17;101829.28;4987080;28;2565;-56
2023/12/04 07:13:09;;;;;;;;;;;;;;;16.05;49.30;101829.28;4969523;28;1079;-55
2023/12/04 07:15:35;;;;;;;;;;;;;;;15.77;50.19;101832.78;4987240;28;1378;-52
2023/12/04 07:18:01;;;;;;;;;;;;;;;17.07;47.10;101834.94;4996215;28;1919;-55
2023/12/04 07:20:26;;;;;;;;;;;;;;;16.87;47.49;101832.66;4996288;28;1036;-55
2023/12/04 07:22:52;;;;;;;;;;;;;;;17.89;45.32;101829.72;4990365;28;1043;-57
2023/12/04 07:25:17;;;;;;;;;;;;;;;19.26;41.92;101833.25;4992466;28;1002;-53
2023/12/04 07:27:43;;;;;;;;;;;;;;;20.11;40.24;101829.53;4996691;28;996;-55
2023/12/04 07:30:08;;;;;;;;;;;;;;;20.68;39.08;101834.06;4996050;28;1051;-56
2023/12/04 07:32:35;;;;;;;;;;;;;;;21.06;38.32;101835.72;4984225;28;1072;-57
2023/12/04 07:35:00;;;;;;;;;;;;;;;21.43;37.64;101838.09;4975384;28;1084;-57
2023/12/04 07:37:26;;;;;;;;;;;;;;;22.11;36.31;101849.78;4975465;28;1911;-55
2023/12/04 07:39:51;;;;;;;;;;;;;;;22.15;37.71;101851.69;4988429;28;1825;-54
2023/12/04 07:42:17;;;;;;;;;;;;;;;16.56;49.92;101848.59;4996226;28;1160;-53
2023/12/04 07:44:43;;;;;;;;;;;;;;;17.23;47.18;101852.50;4983637;28;1032;-51
2023/12/04 07:47:08;;;;;;;;;;;;;;;17.45;45.69;101858.88;4989216;28;1119;-50
2023/12/04 07:49:33;;;;;;;;;;;;;;;17.28;44.93;101852.56;4990891;28;1147;-53
2023/12/04 07:51:59;;;;;;;;;;;;;;;17.28;44.30;101844.31;4996508;28;996;-51
2023/12/04 07:54:26;;;;;;;;;;;;;;;17.04;44.11;101852.75;4995977;28;1057;-51
2023/12/04 07:56:52;;;;;;;;;;;;;;;16.98;43.86;101870.22;4988591;28;1985;-51
2023/12/04 07:59:17;;;;;;;;;;;;;;;16.82;43.84;101860.88;4985593;28;1144;-51
2023/12/04 08:01:44;;;;;;;;;;;;;;;16.65;43.62;101860.88;4996233;28;1118;-53
2023/12/04 08:04:10;;;;;;;;;;;;;;;16.54;43.65;101856.28;4996100;28;1039;-53
2023/12/04 08:06:35;;;;;;;;;;;;;;;16.47;43.40;101859.16;4987806;28;1098;-50
2023/12/04 08:09:02;;;;;;;;;;;;;;;16.33;43.55;101855.06;4976559;28;2518;-56
2023/12/04 08:11:28;;;;;;;;;;;;;;;16.24;43.26;101860.09;4971578;28;1107;-55
2023/12/04 08:13:53;;;;;;;;;;;;;;;16.14;43.28;101857.16;4977877;28;1398;-55
2023/12/04 08:16:20;;;;;;;;;;;;;;;16.10;43.25;101859.53;4986645;28;1977;-55
2023/12/04 08:18:45;;;;;;;;;;;;;;;15.99;43.14;101875.00;4986857;28;1167;-51
2023/12/04 08:21:11;;;;;;;;;;;;;;;15.94;43.08;101869.38;4988476;28;1037;-56
2023/12/04 08:23:37;;;;;;;;;;;;;;;15.70;43.45;101874.06;4994361;28;1144;-57
2023/12/04 08:26:03;;;;;;;;;;;;;;;16.98;45.51;101881.22;4999499;28;1095;-57
2023/12/04 08:28:28;;;;;;;;;;;;;;;16.22;46.11;101862.25;4999369;28;1000;-58
2023/12/04 08:30:54;;;;;;;;;;;;;;;16.00;45.79;101876.63;4988449;28;1035;-56
2023/12/04 08:33:20;;;;;;;;;;;;;;;15.91;45.20;101872.63;4992867;28;1064;-56
2023/12/04 08:35:45;;;;;;;;;;;;;;;15.72;44.63;101870.00;4982519;28;1108;-57
2023/12/04 08:38:11;;;;;;;;;;;;;;;16.86;45.59;101877.72;4984207;28;1914;-55
2023/12/04 08:40:36;;;;;;;;;;;;;;;16.08;46.74;101872.69;4991779;28;2602;-56
2023/12/04 08:43:03;;;;;;;;;;;;;;;15.83;45.90;101868.31;4998470;28;1133;-52
2023/12/04 08:45:29;;;;;;;;;;;;;;;16.97;46.39;101874.09;4998757;28;1059;-55
2023/12/04 08:47:55;;;;;;;;;;;;;;;16.24;47.19;101860.09;4989243;28;952;-55
2023/12/04 08:50:20;;;;;;;;;;;;;;;16.08;46.16;101879.00;4988602;28;1104;-55
2023/12/04 08:52:46;;;;;;;;;;;;;;;15.89;45.88;101875.59;4991966;28;1086;-55
2023/12/04 08:55:12;;;;;;;;;;;;;;;16.73;46.61;101876.94;4987328;28;1136;-56
2023/12/04 08:57:37;;;;;;;;;;;;;;;16.11;47.03;101871.38;4988815;28;1903;-57
2023/12/04 09:00:04;;;;;;;;;;;;;;;16.01;46.02;101869.25;4979060;28;1139;-57
2023/12/04 09:02:30;;;;;;;;;;;;;;;16.28;46.27;101874.16;4976863;28;1075;-57
2023/12/04 09:04:56;;;;;;;;;;;;;;;16.64;47.13;101867.44;4980106;28;1306;-57
2023/12/04 09:07:21;;;;;;;;;;;;;;;16.18;47.04;101866.56;4998522;28;1005;-57
2023/12/04 09:09:47;;;;;;;;;;;;;;;16.00;46.09;101873.88;4989815;28;2270;-57
2023/12/04 09:12:12;;;;;;;;;;;;;;;16.22;46.22;101873.25;4989200;28;1044;-57
2023/12/04 09:14:37;;;;;;;;;;;;;;;16.58;47.21;101880.25;4985920;28;1258;-57
2023/12/04 09:17:03;;;;;;;;;;;;;;;16.16;46.68;101874.19;4998549;28;1976;-59
2023/12/04 09:19:29;;;;;;;;;;;;;;;15.90;46.15;101873.69;4998291;28;1009;-56
2023/12/04 09:21:55;;;;;;;;;;;;;;;15.81;45.37;101870.50;4998600;28;1080;-57
2023/12/04 09:24:20;;;;;;;;;;;;;;;15.65;45.17;101872.03;4991533;28;1059;-57
2023/12/04 09:26:46;;;;;;;;;;;;;;;16.85;46.34;101870.53;4989431;28;1318;-56
2023/12/04 09:29:12;;;;;;;;;;;;;;;16.35;47.42;101863.88;4983688;28;1294;-56
2023/12/04 09:31:38;;;;;;;;;;;;;;;16.01;46.97;101870.06;4998068;28;1175;-56
2023/12/04 09:34:03;;;;;;;;;;;;;;;16.34;47.23;101856.72;4998291;28;1040;-56
2023/12/04 09:36:29;;;;;;;;;;;;;;;16.42;47.57;101862.66;4986853;28;1918;-57
2023/12/04 09:38:55;;;;;;;;;;;;;;;16.10;47.06;101872.44;4983824;28;2534;-56
2023/12/04 09:41:20;;;;;;;;;;;;;;;15.88;46.44;101864.88;4991456;28;1080;-56
2023/12/04 09:43:46;;;;;;;;;;;;;;;16.39;46.84;101863.13;4983915;28;1354;-57
2023/12/04 09:46:12;;;;;;;;;;;;;;;16.05;47.24;101863.03;4985014;28;1033;-56
2023/12/04 09:48:37;;;;;;;;;;;;;;;15.81;46.72;101864.16;4980515;28;1132;-56
2023/12/04 09:51:03;;;;;;;;;;;;;;;16.94;46.69;101863.56;4996328;28;1052;-56
2023/12/04 09:53:28;;;;;;;;;;;;;;;16.18;47.09;101850.94;4984597;28;1130;-56
2023/12/04 09:55:54;;;;;;;;;;;;;;;15.88;46.65;101853.91;4978833;28;1152;-53
2023/12/04 09:58:19;;;;;;;;;;;;;;;15.76;45.78;101847.59;4986617;28;1918;-56
2023/12/04 10:00:45;;;;;;;;;;;;;;;16.80;46.84;101843.78;4985948;28;1071;-56
2023/12/04 10:03:11;;;;;;;;;;;;;;;16.16;47.45;101844.00;4989716;28;1116;-56
2023/12/04 10:05:37;;;;;;;;;;;;;;;16.70;47.33;101847.19;4989124;28;1017;-56
2023/12/04 10:08:02;;;;;;;;;;;;;;;16.96;47.46;101842.19;4983270;28;1561;-56
2023/12/04 10:10:28;;;;;;;;;;;;;;;16.29;47.70;101832.75;4995197;28;2528;-56
2023/12/04 10:12:53;;;;;;;;;;;;;;;16.05;47.13;101834.78;4991591;28;1079;-56
2023/12/04 10:15:19;;;;;;;;;;;;;;;15.98;45.90;101826.69;4989697;28;1025;-57
2023/12/04 10:17:44;;;;;;;;;;;;;;;15.76;45.62;101831.13;4997651;28;1910;-56
2023/12/04 10:20:17;;;;;;;;;;;;;;;15.72;45.00;101837.09;4985149;28;1082;-56
2023/12/04 10:22:56;;;;;;;;;;;;;;;16.80;47.03;101829.25;4984904;28;1045;-55
2023/12/04 10:25:21;;;;;;;;;;;;;;;16.04;47.53;101833.91;4982120;28;879;-56
2023/12/04 10:27:47;;;;;;;;;;;;;;;15.99;46.85;101833.84;4986266;28;1141;-56
2023/12/04 10:30:22;;;;;;;;;;;;;;;16.41;47.73;101841.78;4995529;28;1071;-57
2023/12/04 10:32:48;;;;;;;;;;;;;;;15.99;46.92;101842.06;4987591;28;1103;-55
2023/12/04 10:35:14;;;;;;;;;;;;;;;16.42;47.30;101848.94;4993633;28;1048;-55
2023/12/04 10:37:39;;;;;;;;;;;;;;;16.48;47.68;101844.38;4984051;28;1914;-57
2023/12/04 10:40:09;;;;;;;;;;;;;;;16.08;47.35;101837.84;4986312;28;2423;-57
2023/12/04 10:42:34;;;;;;;;;;;;;;;15.89;46.51;101836.34;4996671;28;1055;-56
2023/12/04 10:45:00;;;;;;;;;;;;;;;15.76;45.95;101837.44;4993212;28;1163;-56
2023/12/04 10:47:30;;;;;;;;;;;;;;;16.51;47.16;101838.38;4984358;28;1094;-57
2023/12/04 10:49:56;;;;;;;;;;;;;;;16.02;47.33;101840.72;4976878;28;1001;-57
2023/12/04 10:52:22;;;;;;;;;;;;;;;15.83;46.39;101842.81;5000694;28;912;-57
2023/12/04 10:54:47;;;;;;;;;;;;;;;16.62;46.90;101839.41;4975961;28;1182;-57
2023/12/04 10:57:14;;;;;;;;;;;;;;;16.10;47.08;101843.09;4991347;28;1907;-57
2023/12/04 10:59:39;;;;;;;;;;;;;;;16.14;47.34;101847.00;4999082;28;1234;-57
2023/12/04 11:02:05;;;;;;;;;;;;;;;16.69;47.33;101845.56;4988918;28;996;-57
2023/12/04 11:04:31;;;;;;;;;;;;;;;16.04;47.63;101836.66;4979307;28;1091;-57
2023/12/04 11:06:57;;;;;;;;;;;;;;;15.94;46.35;101830.97;4982180;28;1087;-57
2023/12/04 11:09:26;;;;;;;;;;;;;;;16.13;46.92;101836.28;4987720;28;1929;-57
2023/12/04 11:11:53;;;;;;;;;;;;;;;16.84;47.15;101836.72;4979186;28;1322;-57
2023/12/04 11:14:22;;;;;;;;;;;;;;;16.15;47.62;101836.88;4990998;28;1166;-57
2023/12/04 11:16:48;;;;;;;;;;;;;;;16.01;46.58;101831.66;4971865;28;1902;-57
2023/12/04 11:19:29;;;;;;;;;;;;;;;15.86;45.81;101814.91;4990658;28;1408;-57
2023/12/04 11:21:58;;;;;;;;;;;;;;;16.62;46.94;101817.44;4995673;28;1139;-57
2023/12/04 11:24:24;;;;;;;;;;;;;;;16.19;47.77;101813.38;4987995;28;1380;-57
2023/12/04 11:26:49;;;;;;;;;;;;;;;15.98;47.11;101812.13;4974627;28;1091;-57
2023/12/04 11:29:15;;;;;;;;;;;;;;;15.91;46.88;101817.75;4984080;28;1044;-57
2023/12/04 11:31:41;;;;;;;;;;;;;;;16.34;47.54;101821.88;4996662;28;1123;-57
2023/12/04 11:34:07;;;;;;;;;;;;;;;15.95;47.30;101824.44;4988925;28;1008;-57
2023/12/04 11:36:33;;;;;;;;;;;;;;;15.82;46.50;101824.69;4968764;28;1906;-57
2023/12/04 11:38:59;;;;;;;;;;;;;;;15.95;46.52;101826.31;4994208;28;2076;-56
2023/12/04 11:41:25;;;;;;;;;;;;;;;16.37;47.40;101829.63;4993952;28;1579;-57
2023/12/04 11:43:51;;;;;;;;;;;;;;;15.92;47.00;101816.66;4980637;28;1219;-57
2023/12/04 11:46:25;;;;;;;;;;;;;;;15.75;46.36;101813.81;4986560;28;1804;-56
2023/12/04 11:48:51;;;;;;;;;;;;;;;16.82;46.70;101819.69;5000345;28;1013;-57
2023/12/04 11:51:40;;;;;;;;;;;;;;;16.31;47.85;101819.59;4999999;28;1040;-56
2023/12/04 11:54:08;;;;;;;;;;;;;;;15.89;47.23;101812.53;4994399;28;1457;-56
2023/12/04 11:56:34;;;;;;;;;;;;;;;15.78;46.39;101812.50;4991016;28;1910;-55
2023/12/04 11:59:03;;;;;;;;;;;;;;;15.73;45.94;101805.03;4996189;28;1161;-57
2023/12/04 12:01:29;;;;;;;;;;;;;;;16.57;47.19;101817.34;4990200;28;1168;-56
2023/12/04 12:03:57;;;;;;;;;;;;;;;16.24;47.85;101816.19;4994703;28;1133;-56
2023/12/04 12:06:23;;;;;;;;;;;;;;;15.96;47.21;101809.59;4989493;28;1164;-56
2023/12/04 12:08:49;;;;;;;;;;;;;;;15.74;46.46;101810.25;4980087;28;1992;-57
2023/12/04 12:11:14;;;;;;;;;;;;;;;16.77;47.28;101808.59;4988381;28;1208;-52
2023/12/04 12:13:40;;;;;;;;;;;;;;;16.18;47.92;101817.19;4985635;28;1214;-56
2023/12/04 12:16:06;;;;;;;;;;;;;;;15.84;47.21;101809.66;4999680;28;1060;-55
2023/12/04 12:18:34;;;;;;;;;;;;;;;16.80;47.71;101813.59;4999508;28;1973;-55
2023/12/04 12:21:00;;;;;;;;;;;;;;;16.13;47.93;101817.91;4989997;28;1001;-55
2023/12/04 12:23:26;;;;;;;;;;;;;;;15.96;46.98;101817.03;4992857;28;1048;-56
2023/12/04 12:25:52;;;;;;;;;;;;;;;15.78;46.20;101823.47;4979931;28;1011;-55
2023/12/04 12:28:17;;;;;;;;;;;;;;;16.78;47.38;101832.25;4992832;28;1121;-55
2023/12/04 12:30:45;;;;;;;;;;;;;;;16.07;47.71;101819.75;4979843;28;1077;-53
2023/12/04 12:33:15;;;;;;;;;;;;;;;15.81;47.32;101823.03;4996431;28;1097;-55
2023/12/04 12:35:41;;;;;;;;;;;;;;;16.22;47.23;101827.41;4987592;28;993;-52
2023/12/04 12:38:07;;;;;;;;;;;;;;;16.29;48.01;101835.50;4983622;28;1902;-58
2023/12/04 12:40:32;;;;;;;;;;;;;;;15.94;47.54;101830.97;4984529;28;2052;-55